ENSI weather

Ski Airfield
Ski, Akershus, Norway

Public forecast

Using degrees Celsius for public forecast. Weather courtesy of forecast.io.

Closest aviation weather report (METAR) to Ski Airfield

Closest report is Oslo, Fornebu Airport, 13.9 nm (25.7 km) NW. Retrieved 2019/10/20 16:20 UTC (0 seconds ago):

ENFB 201620Z AUTO 01022KT 9999NDV BKN030/// 08/03 Q1016 W///S5

Closest aviation forecast (TAF) to Ski Airfield

Closest forecast is Moss Airport, Rygge, 19.9 nm (36.8 km) S. Retrieved 2019/10/20 12:00 UTC (4 hours ago):

TAF TAF ENRY 201100Z 2012/2112 35008KT 9999 FEW005 BKN020 TEMPO 2012/2015 4000 -DZRA BR BKN006 PROB40 2102/2110 0500 FG VV001